Time;durP1;ratioP1;P1;durP2;ratioP2;P2;SDS_P1;SDS_P2;PMS_P1;PMS_P2;Temp;Humidity;BMP_temperature;BMP_pressure;BME280_temperature;BME280_humidity;BME280_pressure;Samples;Min_cycle;Max_cycle;Signal;HPM_P1;HPM_P2
2023/09/06 04:05:46;;;;;;;3.57;2.50;;;12.30;99.90;;;;;;5475163;23;20587;-64
2023/09/06 04:08:18;;;;;;;2.93;2.70;;;12.30;99.90;;;;;;4974428;28;20463;-63
2023/09/06 04:10:44;;;;;;;2.70;2.40;;;12.30;99.90;;;;;;4975219;28;20418;-65
2023/09/06 04:13:12;;;;;;;3.00;2.70;;;12.30;99.90;;;;;;4975074;28;20792;-64
2023/09/06 04:15:39;;;;;;;3.63;2.97;;;12.20;99.90;;;;;;4974316;28;20405;-64
2023/09/06 04:18:07;;;;;;;8.00;2.40;;;12.30;99.90;;;;;;4974941;28;20784;-65
2023/09/06 04:20:36;;;;;;;2.17;1.87;;;12.20;99.90;;;;;;4975022;28;20408;-65
2023/09/06 04:23:06;;;;;;;3.77;2.73;;;12.20;99.90;;;;;;4958193;28;20412;-64
2023/09/06 04:25:44;;;;;;;2.40;2.20;;;12.20;99.90;;;;;;4955094;29;20466;-62
2023/09/06 04:28:11;;;;;;;4.00;3.70;;;12.30;99.90;;;;;;4955895;29;20420;-64
2023/09/06 04:30:38;;;;;;;3.10;2.80;;;12.20;99.90;;;;;;4955907;29;20418;-63
2023/09/06 04:33:10;;;;;;;3.80;3.00;;;12.30;99.90;;;;;;4955459;29;20427;-67
2023/09/06 04:35:43;;;;;;;3.10;2.80;;;12.20;99.90;;;;;;4953851;29;20426;-65
2023/09/06 04:38:09;;;;;;;3.37;3.07;;;12.30;99.90;;;;;;4955145;29;20524;-64
2023/09/06 04:40:35;;;;;;;3.73;2.70;;;12.20;99.90;;;;;;4955625;29;20777;-66
2023/09/06 04:43:01;;;;;;;3.67;3.37;;;12.20;99.90;;;;;;4955374;28;20975;-65
2023/09/06 04:45:27;;;;;;;5.00;4.10;;;12.20;99.90;;;;;;4954841;28;20564;-63
2023/09/06 04:47:52;;;;;;;4.13;3.50;;;12.20;99.90;;;;;;4955632;29;20182;-62
2023/09/06 04:50:18;;;;;;;4.70;3.60;;;12.20;99.90;;;;;;4955315;29;20179;-65
2023/09/06 04:52:50;;;;;;;2.63;2.33;;;12.20;99.90;;;;;;4955354;29;20177;-66
2023/09/06 04:55:19;;;;;;;2.72;2.53;;;12.20;99.90;;;;;;4971390;28;20293;-65
2023/09/06 04:57:46;;;;;;;3.30;3.00;;;12.20;99.90;;;;;;4957157;28;20207;-65
2023/09/06 05:00:18;;;;;;;4.03;3.50;;;12.20;99.90;;;;;;4974397;28;20986;-66
2023/09/06 05:02:45;;;;;;;4.03;3.63;;;12.30;99.90;;;;;;4974464;28;20409;-64
2023/09/06 05:05:12;;;;;;;4.47;4.00;;;12.30;99.90;;;;;;4973928;28;20462;-65
2023/09/06 05:07:38;;;;;;;3.80;3.20;;;12.40;99.90;;;;;;4974366;28;20445;-64
2023/09/06 05:10:04;;;;;;;3.60;3.27;;;12.40;99.90;;;;;;4957276;28;20415;-64
2023/09/06 05:12:29;;;;;;;3.97;3.63;;;12.50;99.90;;;;;;4955227;29;20243;-66
2023/09/06 05:14:55;;;;;;;3.00;2.40;;;12.60;99.90;;;;;;4959546;28;20426;-64
2023/09/06 05:17:21;;;;;;;6.23;4.07;;;12.70;99.90;;;;;;4983307;28;20219;-63
2023/09/06 05:19:52;;;;;;;4.87;3.77;;;12.70;99.90;;;;;;4959179;29;20207;-64
2023/09/06 05:22:18;;;;;;;5.60;3.30;;;12.80;99.90;;;;;;4959098;29;20411;-63
2023/09/06 05:24:45;;;;;;;7.50;3.93;;;12.90;99.90;;;;;;4958488;29;20515;-65
2023/09/06 05:27:11;;;;;;;4.37;3.77;;;13.00;99.90;;;;;;4959114;28;20462;-65
2023/09/06 05:29:36;;;;;;;6.00;4.30;;;13.00;99.90;;;;;;4958780;28;20465;-62
2023/09/06 05:32:03;;;;;;;4.40;3.40;;;13.10;99.90;;;;;;4958745;29;20230;-70
2023/09/06 05:34:29;;;;;;;4.30;3.33;;;13.20;99.90;;;;;;4958228;28;20522;-68
2023/09/06 05:36:55;;;;;;;3.43;3.13;;;13.30;99.90;;;;;;4958701;28;20381;-65
2023/09/06 05:39:21;;;;;;;4.67;3.93;;;13.30;99.90;;;;;;4958493;29;20179;-69
2023/09/06 05:41:50;;;;;;;5.03;3.40;;;13.30;99.90;;;;;;4958612;28;20416;-67
2023/09/06 05:44:16;;;;;;;4.23;3.67;;;13.40;99.90;;;;;;4958315;29;20729;-66
2023/09/06 05:46:43;;;;;;;5.30;3.93;;;13.50;99.90;;;;;;4970779;28;20433;-66
2023/09/06 05:49:08;;;;;;;5.40;4.53;;;13.70;99.90;;;;;;4977374;28;20423;-65
2023/09/06 05:51:35;;;;;;;7.37;4.50;;;13.80;99.90;;;;;;4978135;28;20403;-66
2023/09/06 05:54:00;;;;;;;4.83;3.90;;;13.90;99.90;;;;;;4977176;28;20227;-66
2023/09/06 05:56:26;;;;;;;4.33;3.83;;;13.90;99.90;;;;;;4977412;28;20426;-66
2023/09/06 05:58:52;;;;;;;3.40;3.07;;;14.00;99.90;;;;;;4977012;28;20207;-65
2023/09/06 06:01:18;;;;;;;3.70;2.83;;;14.10;99.90;;;;;;4946352;29;20515;-67
2023/09/06 06:03:45;;;;;;;3.70;2.83;;;14.20;99.90;;;;;;4955583;28;20181;-66
2023/09/06 06:06:13;;;;;;;3.40;2.90;;;14.40;99.90;;;;;;4955891;29;20470;-66
2023/09/06 06:08:41;;;;;;;4.70;3.33;;;14.60;99.90;;;;;;4956108;29;20431;-65
2023/09/06 06:11:08;;;;;;;3.93;3.50;;;14.80;99.90;;;;;;4955964;29;20962;-65
2023/09/06 06:13:33;;;;;;;3.67;3.37;;;14.90;99.90;;;;;;4955702;28;20404;-66
2023/09/06 06:15:59;;;;;;;3.73;3.43;;;15.20;99.90;;;;;;4967923;28;20853;-65
2023/09/06 06:18:26;;;;;;;3.00;2.80;;;15.30;99.90;;;;;;4977228;28;20956;-65
2023/09/06 06:20:52;;;;;;;4.00;2.60;;;15.50;99.90;;;;;;4977140;28;20164;-65
2023/09/06 06:23:18;;;;;;;3.13;2.83;;;15.70;99.90;;;;;;4977343;28;20927;-65
2023/09/06 06:25:43;;;;;;;2.90;2.70;;;15.90;99.90;;;;;;4976608;28;20456;-65
2023/09/06 06:28:09;;;;;;;3.47;3.17;;;16.00;99.90;;;;;;4972427;28;20268;-65
2023/09/06 06:30:34;;;;;;;2.63;2.43;;;16.10;99.90;;;;;;4957624;29;20174;-66
2023/09/06 06:33:00;;;;;;;3.30;3.00;;;16.10;99.90;;;;;;4957646;29;20715;-64
2023/09/06 06:35:26;;;;;;;2.80;2.53;;;16.10;99.90;;;;;;4957306;29;20193;-64
2023/09/06 06:37:52;;;;;;;3.33;2.77;;;16.10;99.90;;;;;;4957717;28;20262;-64
2023/09/06 06:40:18;;;;;;;2.90;2.70;;;16.10;99.90;;;;;;4957811;29;20451;-65
2023/09/06 06:42:44;;;;;;;3.23;2.87;;;16.20;99.90;;;;;;4959558;28;20612;-65
2023/09/06 06:45:10;;;;;;;3.43;2.53;;;16.40;99.90;;;;;;4969877;28;20441;-64
2023/09/06 06:47:36;;;;;;;3.87;3.40;;;16.40;99.90;;;;;;4949442;28;20894;-66
2023/09/06 06:50:06;;;;;;;3.67;3.23;;;16.50;99.90;;;;;;4977255;28;20928;-66
2023/09/06 06:52:33;;;;;;;3.07;2.80;;;16.60;99.90;;;;;;4976747;28;20191;-64
2023/09/06 06:54:59;;;;;;;3.63;3.33;;;16.70;99.90;;;;;;4976233;28;20425;-64
2023/09/06 06:57:24;;;;;;;2.57;2.37;;;16.80;99.90;;;;;;4976439;28;20417;-64
2023/09/06 06:59:50;;;;;;;3.23;2.80;;;16.90;99.90;;;;;;4959200;28;20256;-64
2023/09/06 07:02:16;;;;;;;3.40;3.07;;;17.00;99.90;;;;;;4976343;28;20170;-64
2023/09/06 07:04:41;;;;;;;2.37;2.27;;;17.10;99.90;;;;;;4976300;28;20203;-65
2023/09/06 07:07:07;;;;;;;2.73;2.50;;;17.30;99.90;;;;;;4969101;28;20202;-65
2023/09/06 07:09:33;;;;;;;4.10;3.27;;;17.50;99.90;;;;;;4957114;29;20263;-65
2023/09/06 07:11:59;;;;;;;3.07;2.40;;;17.70;99.90;;;;;;4957054;29;20967;-63
2023/09/06 07:14:25;;;;;;;4.93;2.87;;;17.90;99.90;;;;;;4956472;29;20496;-67
2023/09/06 07:16:51;;;;;;;3.53;3.23;;;18.20;99.90;;;;;;4939825;29;20203;-66
2023/09/06 07:19:16;;;;;;;2.70;2.50;;;18.30;99.90;;;;;;4956895;29;20184;-68
2023/09/06 07:21:44;;;;;;;3.17;2.50;;;18.40;99.90;;;;;;4962302;28;20184;-64
2023/09/06 07:24:13;;;;;;;2.80;2.50;;;18.40;99.90;;;;;;4975481;28;20184;-66
2023/09/06 07:26:38;;;;;;;2.60;2.40;;;18.40;99.90;;;;;;4958577;28;20467;-66
2023/09/06 07:29:04;;;;;;;3.23;2.77;;;18.50;99.90;;;;;;4957679;28;20439;-66
2023/09/06 07:31:29;;;;;;;2.83;2.67;;;18.60;99.90;;;;;;4956594;29;20212;-65
2023/09/06 07:33:55;;;;;;;3.20;2.57;;;18.60;99.90;;;;;;4956220;28;20179;-67
2023/09/06 07:36:21;;;;;;;3.23;2.93;;;18.70;99.90;;;;;;4956601;29;20225;-66
2023/09/06 07:38:47;;;;;;;2.50;2.30;;;18.80;99.90;;;;;;4955639;28;20635;-65
2023/09/06 07:41:13;;;;;;;2.80;2.10;;;19.00;99.90;;;;;;4956456;29;20428;-66
2023/09/06 07:43:39;;;;;;;3.27;2.53;;;19.10;99.90;;;;;;4955045;28;20520;-66
2023/09/06 07:46:09;;;;;;;3.13;2.83;;;19.30;99.90;;;;;;4958172;28;20686;-65
2023/09/06 07:48:36;;;;;;;2.67;2.47;;;19.50;99.90;;;;;;4975663;28;20210;-65
2023/09/06 07:51:04;;;;;;;3.73;3.00;;;19.80;99.90;;;;;;4975468;28;20414;-66
2023/09/06 07:53:30;;;;;;;3.40;2.33;;;20.20;99.90;;;;;;4975409;28;20478;-70
2023/09/06 07:55:55;;;;;;;2.30;2.10;;;20.90;99.90;;;;;;4975275;28;20446;-68
2023/09/06 07:58:21;;;;;;;3.60;2.97;;;21.90;99.90;;;;;;4958634;28;20403;-68
2023/09/06 08:00:48;;;;;;;2.67;2.47;;;23.20;99.90;;;;;;4956320;28;20181;-64
2023/09/06 08:03:14;;;;;;;3.70;3.40;;;24.40;99.00;;;;;;4956069;29;20421;-66
2023/09/06 08:05:40;;;;;;;3.00;2.80;;;25.60;96.00;;;;;;4955504;28;20936;-67
2023/09/06 08:08:10;;;;;;;3.20;2.90;;;26.80;94.80;;;;;;4939596;29;20529;-67
2023/09/06 08:10:37;;;;;;;3.40;3.10;;;28.00;92.80;;;;;;4938756;29;20839;-67
2023/09/06 08:13:03;;;;;;;3.00;2.80;;;29.30;88.60;;;;;;4955944;29;20816;-68
2023/09/06 08:15:33;;;;;;;3.50;3.20;;;29.80;84.10;;;;;;4955252;28;20414;-67
2023/09/06 08:18:00;;;;;;;2.80;2.60;;;30.10;82.90;;;;;;4956102;29;20417;-66
2023/09/06 08:20:25;;;;;;;5.80;3.70;;;30.50;82.30;;;;;;4955619;28;20391;-65
2023/09/06 08:22:51;;;;;;;4.33;3.70;;;30.90;80.60;;;;;;4968985;28;20428;-65
2023/09/06 08:25:18;;;;;;;4.17;3.70;;;31.50;78.70;;;;;;4974625;28;20219;-66
2023/09/06 08:27:44;;;;;;;3.00;2.70;;;31.90;76.40;;;;;;4975032;28;20191;-66
2023/09/06 08:30:12;;;;;;;2.63;2.43;;;32.10;76.00;;;;;;4975125;28;20477;-63
2023/09/06 08:32:39;;;;;;;3.07;2.77;;;32.00;73.10;;;;;;4975079;28;20477;-63
2023/09/06 08:35:06;;;;;;;3.63;3.30;;;32.00;74.30;;;;;;4974371;28;20443;-63
2023/09/06 08:37:33;;;;;;;3.43;3.13;;;32.50;73.50;;;;;;4968790;28;20981;-66
2023/09/06 08:39:59;;;;;;;3.27;3.07;;;33.20;70.30;;;;;;4957304;28;20459;-63
2023/09/06 08:42:27;;;;;;;3.17;2.97;;;33.80;69.70;;;;;;4974904;28;20425;-63
2023/09/06 08:44:54;;;;;;;3.60;3.30;;;34.50;68.50;;;;;;4956819;28;20690;-64
2023/09/06 08:47:21;;;;;;;2.63;2.33;;;34.70;67.80;;;;;;4957118;28;20593;-65
2023/09/06 08:49:50;;;;;;;3.30;3.10;;;34.90;66.20;;;;;;4974262;28;20431;-66
2023/09/06 08:52:20;;;;;;;3.30;3.00;;;34.90;66.40;;;;;;4944216;28;20428;-63
2023/09/06 08:54:48;;;;;;;3.70;3.40;;;34.60;66.40;;;;;;4954752;28;20862;-64
2023/09/06 08:57:14;;;;;;;3.07;2.87;;;34.30;65.90;;;;;;4955392;29;20798;-67
2023/09/06 08:59:41;;;;;;;3.70;3.40;;;34.30;66.30;;;;;;4955450;29;20812;-64
2023/09/06 09:02:12;;;;;;;2.97;2.77;;;34.10;65.80;;;;;;4955250;28;20404;-67
2023/09/06 09:04:42;;;;;;;3.20;3.00;;;33.80;66.60;;;;;;4954836;29;20462;-67
2023/09/06 09:07:13;;;;;;;3.00;2.80;;;33.80;67.40;;;;;;4951750;28;20459;-68
2023/09/06 09:09:56;;;;;;;3.10;2.90;;;34.30;67.30;;;;;;4974538;28;20438;-63
2023/09/06 09:12:29;;;;;;;2.90;2.70;;;34.50;65.50;;;;;;4974462;28;20479;-65
2023/09/06 09:14:56;;;;;;;2.83;2.63;;;34.70;65.50;;;;;;4956359;28;20443;-67
2023/09/06 09:17:26;;;;;;;3.87;3.67;;;34.90;65.20;;;;;;4974161;28;20473;-66
2023/09/06 09:19:57;;;;;;;3.10;2.90;;;35.00;64.50;;;;;;4964360;28;20931;-66
2023/09/06 09:22:27;;;;;;;4.00;3.67;;;35.20;64.30;;;;;;4937805;29;20440;-64
2023/09/06 09:25:02;;;;;;;3.60;3.30;;;35.40;63.80;;;;;;4921543;29;20433;-64
2023/09/06 09:27:29;;;;;;;3.17;2.87;;;35.60;62.70;;;;;;4955152;28;20420;-67
2023/09/06 09:30:00;;;;;;;2.77;2.57;;;35.70;62.10;;;;;;4955121;28;20757;-66
2023/09/06 09:32:25;;;;;;;3.70;3.50;;;35.90;62.90;;;;;;4955137;29;20448;-64
2023/09/06 09:34:52;;;;;;;3.30;3.10;;;36.10;61.40;;;;;;4965593;28;20455;-65
2023/09/06 09:37:19;;;;;;;3.30;3.10;;;36.10;62.30;;;;;;4974025;28;20204;-67
2023/09/06 09:39:45;;;;;;;3.80;3.50;;;36.30;62.20;;;;;;4973968;28;20435;-69
2023/09/06 09:42:11;;;;;;;2.87;2.73;;;36.50;60.50;;;;;;4974110;28;20433;-67
2023/09/06 09:44:38;;;;;;;3.63;3.33;;;36.60;59.90;;;;;;4973620;28;20232;-70
2023/09/06 09:47:08;;;;;;;2.97;2.80;;;36.50;59.60;;;;;;4974116;28;20400;-66
2023/09/06 09:49:34;;;;;;;3.30;3.10;;;36.70;59.40;;;;;;4962691;28;20465;-70
2023/09/06 09:52:00;;;;;;;2.70;2.53;;;36.90;58.70;;;;;;4954998;28;20417;-70
2023/09/06 09:54:30;;;;;;;2.60;2.50;;;36.80;58.70;;;;;;4954471;29;20412;-67
2023/09/06 09:57:06;;;;;;;3.40;3.20;;;36.80;59.50;;;;;;4954646;29;20297;-67
2023/09/06 09:59:36;;;;;;;3.20;3.00;;;36.80;59.00;;;;;;4955026;29;20771;-72
2023/09/06 10:02:04;;;;;;;3.33;3.13;;;37.20;59.10;;;;;;4956100;28;20483;-69
2023/09/06 10:04:35;;;;;;;3.80;3.50;;;37.00;58.60;;;;;;4970260;28;20426;-65
2023/09/06 10:07:04;;;;;;;2.60;2.50;;;36.90;58.90;;;;;;4977426;28;20439;-70
2023/09/06 10:09:32;;;;;;;3.23;3.00;;;36.70;58.60;;;;;;4977274;28;20394;-66
2023/09/06 10:12:00;;;;;;;2.50;2.40;;;36.50;58.40;;;;;;4977417;28;20902;-69
2023/09/06 10:14:27;;;;;;;3.17;2.97;;;36.50;59.00;;;;;;4976501;28;20424;-69
2023/09/06 10:16:53;;;;;;;3.67;3.37;;;36.30;59.00;;;;;;4976737;28;21005;-74
2023/09/06 10:19:22;;;;;;;3.67;3.47;;;36.10;59.80;;;;;;4976241;28;20424;-69
2023/09/06 10:21:48;;;;;;;3.13;2.93;;;36.00;59.50;;;;;;4977380;28;20443;-66
2023/09/06 10:24:19;;;;;;;3.33;3.10;;;35.90;59.50;;;;;;4976447;28;20878;-69
2023/09/06 10:26:47;;;;;;;2.97;2.73;;;35.90;59.00;;;;;;4974878;28;20426;-66
2023/09/06 10:29:23;;;;;;;4.00;3.70;;;35.80;59.10;;;;;;4976490;28;20472;-67
2023/09/06 10:31:51;;;;;;;3.43;3.13;;;35.50;60.20;;;;;;4975380;28;20462;-65
2023/09/06 10:34:20;;;;;;;3.33;3.13;;;35.40;59.40;;;;;;4975845;28;20439;-67
2023/09/06 10:36:55;;;;;;;3.70;3.40;;;35.20;59.50;;;;;;4976437;28;20538;-67
2023/09/06 10:39:22;;;;;;;3.87;3.57;;;34.90;59.80;;;;;;4973420;28;20434;-66
2023/09/06 10:42:08;;;;;;;2.93;2.73;;;34.50;60.20;;;;;;4976384;28;20491;-71
2023/09/06 10:44:56;;;;;;;3.60;3.30;;;33.90;61.50;;;;;;4975063;28;20410;-65
2023/09/06 10:47:30;;;;;;;3.27;3.07;;;33.60;61.80;;;;;;4975556;28;20730;-66
2023/09/06 10:50:12;;;;;;;3.40;3.10;;;33.50;62.40;;;;;;4976358;28;20761;-66
2023/09/06 10:52:48;;;;;;;3.03;2.83;;;33.40;62.30;;;;;;4976089;28;20390;-72
2023/09/06 10:55:17;;;;;;;2.97;2.70;;;33.20;63.50;;;;;;4975502;28;20418;-67
2023/09/06 10:58:09;;;;;;;3.00;2.80;;;33.10;63.60;;;;;;4976485;28;20442;-64
2023/09/06 11:00:35;;;;;;;2.83;2.63;;;33.00;64.70;;;;;;4968074;28;20458;-64
2023/09/06 11:03:21;;;;;;;3.17;2.97;;;33.00;64.00;;;;;;4975709;28;20478;-64
2023/09/06 11:05:52;;;;;;;3.67;2.60;;;32.90;63.40;;;;;;4975770;28;20465;-65
2023/09/06 11:08:26;;;;;;;4.20;3.13;;;32.50;63.10;;;;;;4976756;28;20411;-68
2023/09/06 11:10:58;;;;;;;3.47;3.17;;;31.80;65.70;;;;;;4959440;28;20403;-68
2023/09/06 11:13:29;;;;;;;2.77;2.57;;;31.00;66.70;;;;;;4976253;28;20416;-65
2023/09/06 11:15:55;;;;;;;3.30;3.10;;;30.30;68.60;;;;;;4973729;28;20430;-66
2023/09/06 11:18:20;;;;;;;3.20;2.90;;;29.70;70.80;;;;;;4957225;29;20409;-68
2023/09/06 11:20:50;;;;;;;3.57;2.57;;;29.30;70.90;;;;;;4939705;29;20399;-67
2023/09/06 11:23:19;;;;;;;3.30;3.00;;;28.80;72.10;;;;;;4957030;28;20293;-66
2023/09/06 11:25:45;;;;;;;3.40;3.10;;;28.40;74.60;;;;;;4956442;29;20426;-65
2023/09/06 11:28:18;;;;;;;3.47;3.17;;;28.00;74.10;;;;;;4957797;28;20544;-65
2023/09/06 11:30:47;;;;;;;3.30;2.97;;;27.70;75.80;;;;;;4956898;28;20410;-67
2023/09/06 11:33:17;;;;;;;4.47;3.53;;;27.60;76.80;;;;;;4980782;28;20484;-70
2023/09/06 11:35:52;;;;;;;3.27;2.97;;;27.50;77.80;;;;;;4994934;28;20975;-66
2023/09/06 11:38:21;;;;;;;3.53;3.33;;;27.40;78.70;;;;;;4995326;28;20397;-69
2023/09/06 11:40:47;;;;;;;4.00;3.37;;;27.30;79.40;;;;;;4995501;28;20396;-69
2023/09/06 11:43:15;;;;;;;3.30;2.47;;;27.20;80.20;;;;;;4981064;28;20403;-67
2023/09/06 11:45:44;;;;;;;3.20;2.90;;;27.20;81.10;;;;;;4975318;28;20224;-69
2023/09/06 11:48:10;;;;;;;4.07;3.77;;;27.20;82.20;;;;;;4975850;28;20428;-64
2023/09/06 11:50:40;;;;;;;3.70;3.30;;;27.20;82.40;;;;;;4975797;28;20424;-66
2023/09/06 11:53:09;;;;;;;3.53;3.20;;;27.10;82.00;;;;;;4958412;28;20448;-66
2023/09/06 11:55:39;;;;;;;3.50;3.20;;;27.10;83.60;;;;;;4974867;28;20411;-69
2023/09/06 11:58:05;;;;;;;3.63;3.30;;;27.10;83.80;;;;;;4961325;28;20523;-68
2023/09/06 12:00:45;;;;;;;4.00;3.70;;;27.20;83.50;;;;;;4964636;28;20880;-66
2023/09/06 12:03:20;;;;;;;3.43;3.23;;;27.20;83.40;;;;;;4972621;28;20182;-70
2023/09/06 12:05:47;;;;;;;3.57;3.20;;;27.20;83.20;;;;;;4974138;28;20926;-66
2023/09/06 12:08:20;;;;;;;3.90;3.60;;;27.20;84.40;;;;;;4975246;28;20417;-67
2023/09/06 12:10:50;;;;;;;2.97;2.77;;;27.30;83.30;;;;;;4974537;28;20409;-64
2023/09/06 12:13:25;;;;;;;2.83;2.63;;;27.40;81.80;;;;;;4960159;28;20497;-69
2023/09/06 12:15:51;;;;;;;2.93;2.70;;;27.40;81.70;;;;;;4955311;28;20441;-63
2023/09/06 12:18:18;;;;;;;6.60;3.10;;;27.30;82.40;;;;;;4955648;28;20412;-70
2023/09/06 12:20:43;;;;;;;2.60;2.40;;;27.40;82.10;;;;;;4956165;29;20173;-70
2023/09/06 12:23:09;;;;;;;3.53;3.10;;;27.40;82.30;;;;;;4955833;29;20393;-72
2023/09/06 12:25:35;;;;;;;4.50;3.60;;;27.40;81.70;;;;;;4963642;28;20264;-71
2023/09/06 12:28:01;;;;;;;3.57;3.00;;;27.40;81.50;;;;;;4974874;28;20181;-69
2023/09/06 12:30:27;;;;;;;3.30;3.00;;;27.40;81.60;;;;;;4973153;28;20629;-65
2023/09/06 12:32:52;;;;;;;4.73;2.90;;;27.40;81.30;;;;;;4955453;28;20437;-66
2023/09/06 12:35:18;;;;;;;3.30;3.00;;;27.40;82.30;;;;;;4955080;29;20205;-66
2023/09/06 12:37:43;;;;;;;3.13;2.83;;;27.40;80.70;;;;;;4960453;28;20235;-74
2023/09/06 12:40:12;;;;;;;3.10;2.90;;;27.50;81.10;;;;;;4974643;28;20248;-65
2023/09/06 12:42:42;;;;;;;3.00;2.70;;;27.50;81.10;;;;;;4974780;28;20220;-72
2023/09/06 12:45:09;;;;;;;3.03;2.83;;;27.60;81.30;;;;;;4974281;28;20439;-65
2023/09/06 12:47:37;;;;;;;2.50;2.30;;;27.60;80.30;;;;;;4974648;28;20413;-69
2023/09/06 12:50:05;;;;;;;5.27;3.47;;;27.60;79.80;;;;;;4957370;28;20762;-73
2023/09/06 12:52:32;;;;;;;3.27;2.93;;;27.60;80.80;;;;;;4966345;28;20441;-71
2023/09/06 12:54:57;;;;;;;3.23;2.93;;;27.60;81.00;;;;;;4954828;29;20529;-66
2023/09/06 12:57:23;;;;;;;3.47;3.17;;;27.60;80.20;;;;;;4955016;29;20579;-74
2023/09/06 12:59:48;;;;;;;3.30;3.00;;;27.60;80.50;;;;;;4955195;29;20633;-73
2023/09/06 13:02:14;;;;;;;3.27;2.97;;;27.70;80.00;;;;;;4955219;29;20608;-65
2023/09/06 13:04:39;;;;;;;3.50;2.77;;;27.70;79.80;;;;;;4954600;28;20195;-73
2023/09/06 13:07:05;;;;;;;3.07;2.77;;;27.70;79.50;;;;;;4961460;28;20225;-75
2023/09/06 13:09:31;;;;;;;4.40;3.40;;;27.80;80.00;;;;;;4974451;28;20179;-66
2023/09/06 13:11:57;;;;;;;3.07;2.87;;;27.80;81.00;;;;;;4974368;28;20171;-75
2023/09/06 13:14:22;;;;;;;4.40;2.37;;;27.90;81.10;;;;;;4974006;28;20185;-66
2023/09/06 13:16:48;;;;;;;3.33;3.00;;;28.00;79.00;;;;;;4974466;28;20463;-65
2023/09/06 13:19:13;;;;;;;3.60;3.30;;;27.90;78.50;;;;;;4974318;28;20349;-71
2023/09/06 13:21:39;;;;;;;2.50;2.40;;;27.90;78.00;;;;;;4968834;28;20185;-76
2023/09/06 13:24:05;;;;;;;3.10;2.80;;;27.90;78.70;;;;;;4954477;28;20539;-69
2023/09/06 13:26:30;;;;;;;3.30;2.90;;;28.00;78.10;;;;;;4955032;29;20300;-70
2023/09/06 13:28:56;;;;;;;3.13;2.93;;;28.00;78.60;;;;;;4955139;29;20188;-66
2023/09/06 13:31:21;;;;;;;2.30;2.10;;;28.10;78.50;;;;;;4954941;29;20176;-65
2023/09/06 13:33:48;;;;;;;3.00;2.80;;;28.10;77.40;;;;;;4954637;29;20190;-66
2023/09/06 13:36:14;;;;;;;2.73;2.50;;;28.10;78.40;;;;;;4960358;28;20603;-71
2023/09/06 13:38:40;;;;;;;2.80;2.60;;;28.10;78.30;;;;;;4978128;28;20500;-74
2023/09/06 13:41:05;;;;;;;2.27;2.17;;;28.10;78.70;;;;;;4978186;28;20496;-73
2023/09/06 13:43:31;;;;;;;3.13;2.90;;;28.10;78.30;;;;;;4977869;28;20262;-67
2023/09/06 13:45:57;;;;;;;3.17;2.97;;;28.10;78.50;;;;;;4977757;28;20195;-73
2023/09/06 13:48:22;;;;;;;3.60;3.30;;;28.10;78.90;;;;;;4977543;28;20180;-67
2023/09/06 13:50:48;;;;;;;2.73;2.47;;;28.10;78.10;;;;;;4942756;29;20220;-66
2023/09/06 13:53:13;;;;;;;8.37;2.90;;;28.10;77.40;;;;;;4958426;29;20186;-73
2023/09/06 13:55:39;;;;;;;2.63;2.50;;;28.00;78.50;;;;;;4957947;29;20639;-74
2023/09/06 13:58:08;;;;;;;3.80;2.57;;;28.10;78.90;;;;;;4958275;28;20175;-71
2023/09/06 14:00:33;;;;;;;3.10;2.80;;;28.10;79.00;;;;;;4962339;28;20174;-66
2023/09/06 14:02:59;;;;;;;2.73;2.50;;;28.10;78.50;;;;;;4959494;28;20799;-69
2023/09/06 14:05:25;;;;;;;2.57;2.37;;;28.00;78.80;;;;;;4958097;28;20226;-71
2023/09/06 14:07:50;;;;;;;2.93;2.73;;;28.10;78.40;;;;;;4958150;28;20202;-66
2023/09/06 14:10:16;;;;;;;4.23;2.67;;;28.00;79.10;;;;;;4959493;28;20217;-66
2023/09/06 14:12:41;;;;;;;2.77;2.50;;;28.10;78.50;;;;;;4963526;28;20173;-67
2023/09/06 14:15:08;;;;;;;2.67;2.47;;;28.00;78.40;;;;;;4959221;28;20202;-72
2023/09/06 14:17:34;;;;;;;2.50;2.30;;;28.00;78.70;;;;;;4959601;28;20205;-73
2023/09/06 14:19:59;;;;;;;3.80;3.00;;;28.10;79.00;;;;;;4961554;28;20773;-65
2023/09/06 14:22:26;;;;;;;2.43;2.23;;;28.10;79.40;;;;;;4975652;28;20183;-65
2023/09/06 14:24:52;;;;;;;2.67;2.50;;;28.10;78.40;;;;;;4976733;28;20658;-71
2023/09/06 14:27:18;;;;;;;2.30;2.10;;;28.10;78.40;;;;;;4977358;28;20443;-72
2023/09/06 14:29:44;;;;;;;3.67;3.07;;;28.10;77.40;;;;;;4977290;28;20179;-66
2023/09/06 14:32:10;;;;;;;3.27;3.00;;;28.10;77.40;;;;;;4964173;28;20430;-66
2023/09/06 14:34:35;;;;;;;2.67;2.30;;;28.10;78.10;;;;;;4962060;28;20295;-71
2023/09/06 14:37:01;;;;;;;2.40;2.20;;;28.10;77.50;;;;;;4957745;28;20199;-65
2023/09/06 14:39:27;;;;;;;3.50;2.57;;;28.10;77.30;;;;;;4957857;28;20175;-67
2023/09/06 14:41:53;;;;;;;3.00;2.43;;;28.10;78.40;;;;;;4969973;28;20183;-64
2023/09/06 14:44:18;;;;;;;3.63;2.43;;;28.10;77.80;;;;;;4976510;28;20405;-72
2023/09/06 14:46:44;;;;;;;2.73;2.53;;;28.00;77.80;;;;;;4969599;28;20178;-65
2023/09/06 14:49:10;;;;;;;2.63;2.43;;;28.00;79.30;;;;;;4957040;28;20473;-73
2023/09/06 14:51:35;;;;;;;2.80;2.60;;;28.00;77.70;;;;;;4958573;28;20184;-72
2023/09/06 14:54:01;;;;;;;2.70;2.50;;;28.00;77.70;;;;;;4976500;28;20413;-64
2023/09/06 14:56:27;;;;;;;2.33;2.13;;;28.00;78.10;;;;;;4969045;28;20207;-72
2023/09/06 14:58:54;;;;;;;2.73;2.53;;;28.00;76.60;;;;;;4975916;28;20418;-73
2023/09/06 15:01:21;;;;;;;2.40;2.20;;;28.00;78.00;;;;;;4974945;28;20174;-69
2023/09/06 15:03:47;;;;;;;2.70;2.50;;;28.00;77.90;;;;;;4976307;28;20403;-69
2023/09/06 15:06:13;;;;;;;3.73;2.60;;;27.90;77.80;;;;;;4976270;28;20532;-66
2023/09/06 15:08:40;;;;;;;2.37;2.20;;;27.90;77.20;;;;;;4976513;28;20388;-73
2023/09/06 15:11:06;;;;;;;2.07;1.87;;;28.00;76.90;;;;;;4969249;28;20431;-66
2023/09/06 15:13:32;;;;;;;2.30;2.10;;;27.90;78.10;;;;;;4976210;28;20927;-72
2023/09/06 15:15:58;;;;;;;1.97;1.87;;;27.90;77.50;;;;;;4976041;28;20455;-66
2023/09/06 15:18:23;;;;;;;2.60;1.60;;;27.80;78.10;;;;;;4958804;28;20181;-73
2023/09/06 15:20:49;;;;;;;2.27;2.10;;;27.80;78.10;;;;;;4959075;28;20182;-70
2023/09/06 15:23:15;;;;;;;1.90;1.80;;;27.80;78.90;;;;;;4939638;29;20169;-73
2023/09/06 15:25:41;;;;;;;1.83;1.73;;;27.80;78.80;;;;;;4966977;28;20778;-65
2023/09/06 15:28:06;;;;;;;2.90;2.20;;;27.80;77.50;;;;;;4976199;28;20175;-71
2023/09/06 15:30:32;;;;;;;2.70;2.07;;;27.90;77.70;;;;;;4957646;28;20634;-65
2023/09/06 15:32:57;;;;;;;2.93;2.60;;;27.80;78.00;;;;;;4965688;28;20256;-69
2023/09/06 15:35:27;;;;;;;2.23;2.07;;;27.80;78.10;;;;;;4970863;28;20199;-72
2023/09/06 15:38:03;;;;;;;2.20;2.10;;;27.80;77.80;;;;;;4956310;28;20215;-66
2023/09/06 15:40:29;;;;;;;1.87;1.77;;;27.80;78.70;;;;;;4956436;28;20416;-65
2023/09/06 15:42:54;;;;;;;2.07;1.90;;;27.80;77.40;;;;;;4956441;29;20437;-67
2023/09/06 15:45:20;;;;;;;1.90;1.80;;;27.80;77.80;;;;;;4966405;28;20463;-71
2023/09/06 15:47:47;;;;;;;2.30;2.10;;;27.80;77.70;;;;;;4965873;28;20281;-72
2023/09/06 15:50:15;;;;;;;1.73;1.63;;;27.70;77.70;;;;;;4956126;29;20169;-72
2023/09/06 15:52:42;;;;;;;1.83;1.57;;;27.70;78.30;;;;;;4956470;28;20509;-73
2023/09/06 15:55:08;;;;;;;2.23;2.03;;;27.70;77.70;;;;;;4963646;28;20447;-73
2023/09/06 15:57:33;;;;;;;2.07;1.97;;;27.70;78.10;;;;;;4975361;28;20451;-69
2023/09/06 15:59:59;;;;;;;1.93;1.83;;;27.70;78.40;;;;;;4974584;28;20436;-74
2023/09/06 16:02:26;;;;;;;2.07;1.97;;;27.70;79.00;;;;;;4966303;28;20213;-68
2023/09/06 16:04:52;;;;;;;2.17;2.07;;;27.60;79.10;;;;;;4960320;28;20212;-66
2023/09/06 16:07:17;;;;;;;1.80;1.70;;;27.60;79.00;;;;;;4951338;28;20436;-66
2023/09/06 16:09:44;;;;;;;4.40;1.93;;;27.60;78.80;;;;;;4957591;28;20566;-74
2023/09/06 16:12:09;;;;;;;1.83;1.50;;;27.60;78.40;;;;;;4955530;28;20169;-74
2023/09/06 16:14:35;;;;;;;1.60;1.50;;;27.60;77.80;;;;;;4958801;28;20441;-68
2023/09/06 16:17:01;;;;;;;2.40;2.20;;;27.60;77.80;;;;;;4971157;28;20199;-66
2023/09/06 16:19:27;;;;;;;1.80;1.70;;;27.50;77.50;;;;;;4974652;28;20173;-72
2023/09/06 16:21:53;;;;;;;1.90;1.80;;;27.50;77.90;;;;;;4974760;28;20412;-63
2023/09/06 16:24:18;;;;;;;2.03;1.83;;;27.50;78.70;;;;;;4966308;28;20532;-66
2023/09/06 16:26:44;;;;;;;2.07;1.90;;;27.40;78.50;;;;;;4975557;28;20177;-71
2023/09/06 16:29:11;;;;;;;2.10;2.00;;;27.40;78.90;;;;;;4962256;28;20265;-75
2023/09/06 16:31:37;;;;;;;2.13;2.03;;;27.40;78.60;;;;;;4974857;28;20263;-73
2023/09/06 16:34:04;;;;;;;2.37;1.90;;;27.30;79.20;;;;;;4974189;28;20507;-65
2023/09/06 16:36:30;;;;;;;1.77;1.67;;;27.30;79.00;;;;;;4972835;28;20189;-67
2023/09/06 16:38:55;;;;;;;1.50;1.40;;;27.30;78.20;;;;;;4938217;29;20417;-72
2023/09/06 16:41:21;;;;;;;2.33;1.40;;;27.30;78.40;;;;;;4955733;29;20487;-72
2023/09/06 16:43:46;;;;;;;1.90;1.73;;;27.20;78.90;;;;;;4960401;28;20244;-66
2023/09/06 16:46:14;;;;;;;2.03;1.93;;;27.20;79.20;;;;;;4973516;28;20259;-65
2023/09/06 16:48:39;;;;;;;1.90;1.80;;;27.10;79.00;;;;;;4974850;28;20164;-64
2023/09/06 16:51:06;;;;;;;2.03;1.87;;;27.10;79.50;;;;;;4974208;28;20554;-70
2023/09/06 16:53:33;;;;;;;2.17;2.00;;;27.00;79.50;;;;;;4958379;28;20173;-70